Tuesday, April 24, 2018, 4:10 AM EDT
Back to Local

KHVN, Tweed-new Haven Airport

Location: East Haven, CT, United States Lat: 41.267
Local Time: 4:10 AM EDT ( 8:10 GMT) Lon: -72.883
Time Zone: US/Eastern Elev: 13 ft

Show me the last for .
Show Decoded

2018-04-24 03:53 METAR KHVN 240753Z AUTO 00000KT 10SM CLR 03/01 A3042 RMK AO2 SLP301 T00280011 =
2018-04-24 02:53 METAR KHVN 240653Z AUTO 00000KT 10SM CLR 03/01 A3043 RMK AO2 SLP302 T00280006 =
2018-04-24 01:53 METAR KHVN 240553Z AUTO 00000KT 10SM CLR 03/02 A3043 RMK AO2 SLP302 T00330017
                 10100 20033 58009 =
2018-04-24 00:53 METAR KHVN 240453Z AUTO 00000KT 10SM CLR 04/02 A3044 RMK AO2 SLP309 T00390017
                 401610006 =
2018-04-23 23:53 METAR KHVN 240353Z AUTO 00000KT 10SM CLR 05/02 A3045 RMK AO2 SLP311 T00500022 =
2018-04-23 22:53 METAR KHVN 240253Z AUTO 15003KT 10SM CLR 07/03 A3045 RMK AO2 SLP311 T00670028
                 50006 =
2018-04-23 21:53 METAR KHVN 240153Z 18003KT 10SM CLR 07/03 A3046 RMK AO2 SLP313 T00720028 =
2018-04-23 20:53 METAR KHVN 240053Z 18003KT 10SM CLR 08/03 A3046 RMK AO2 SLP313 T00830033 =
2018-04-23 19:53 METAR KHVN 232353Z 16006KT 10SM CLR 09/02 A3043 RMK AO2 SLP305 T00940017 10161
                 20094 55003 =
2018-04-23 18:53 METAR KHVN 232253Z 17008KT 10SM CLR 12/M01 A3043 RMK AO2 SLP305 T01221011 =
2018-04-23 17:53 METAR KHVN 232153Z 17009KT 10SM CLR 14/M01 A3044 RMK AO2 SLP307 T01391006 =
2018-04-23 16:53 METAR KHVN 232053Z 15012KT 10SM CLR 15/M03 A3044 RMK AO2 SLP308 T01501033 56008
                 =
2018-04-23 15:53 METAR KHVN 231953Z 14009KT 10SM CLR 16/M03 A3045 RMK AO2 SLP310 T01561028 =
2018-04-23 14:53 METAR KHVN 231853Z 15011KT 10SM CLR 15/M03 A3046 RMK AO2 SLP313 T01501028 =
2018-04-23 13:53 METAR KHVN 231753Z 17013KT 10SM CLR 16/M05 A3047 RMK AO2 SLP316 T01611050 10161
                 20089 58011 =
2018-04-23 12:53 METAR KHVN 231653Z 17008KT 10SM CLR 14/M03 A3048 RMK AO2 SLP322 T01441028 =
2018-04-23 11:53 METAR KHVN 231553Z 15011KT 10SM CLR 13/M03 A3050 RMK AO2 SLP327 T01281033 =
2018-04-23 10:53 METAR KHVN 231453Z 14009KT 10SM CLR 13/M03 A3050 RMK AO2 SLP327 T01331033 53003
                 =
2018-04-23 09:53 METAR KHVN 231353Z 13008KT 10SM CLR 14/M05 A3049 RMK AO2 SLP323 T01441050 =
2018-04-23 08:53 METAR KHVN 231253Z 04004KT 10SM CLR 12/M04 A3049 RMK AO2 SLP324 T01171044 =
2018-04-23 07:53 METAR KHVN 231153Z 01007KT 10SM CLR 09/M03 A3049 RMK AO2 SLP323 T00891028 10089
                 20006 51019 =
2018-04-23 06:53 METAR KHVN 231053Z 05003KT 10SM CLR 04/M02 A3047 RMK AO2 SLP319 T00441022 =
2018-04-23 05:53 METAR KHVN 230953Z AUTO 00000KT 10SM CLR 02/M02 A3046 RMK AO2 SLP313 T00171022 =
2018-04-23 04:53 METAR KHVN 230853Z AUTO 00000KT 10SM CLR 02/M02 A3043 RMK AO2 SLP305 T00171017
                 51012 =

Support USWX by starting your Amazon purchase here.